Search for airport 
image banner adimage banner adimage banner ad
image banner ad

UGGT - Telavi

Located in Telavi, Georgia

ICAO - , IATA -

Data provided by Airmate  

General information

Coordinates: N41°57'12" E45°30'32"
Elevation is 1496 feet MSL.
Magnetic variation is 6° East
View others Airports in Kakheti

Operational data

Special qualification required
Current time UTC:
Current local time:
Weather at : UGTB - Tbilisi/Tbilisi ( 56 km )
METAR: UGTB 082200Z 34001KT CAVOK 15/13 Q1016 R13R/////// NOSIG
TAF: TAF UGTB 081700Z 0818/0918 VRB02KT 9999 SCT050CB TX23/0910Z TN10/0902Z TEMPO 0818/0822 VRB10KT TS BKN030CB TEMPO 0905/0909 24010KT BECMG 0909/0911 32027KT TEMPO 0911/0918 32037G49KT TSRA BKN030CB
View NOTAMs / SUP AIP / TFR affecting this airport [VIEW]
Communications frequencies: [VIEW]

Runways:

RWY identifierQFULength (ft)Width (ft)SurfaceLDA (ft)
10102°377382CONC+ASPH3773
28282°377382CONC+ASPH3773

Airport contact information

Address: Telavi Georgia

Satellite view of UGGT